Flugplatz Donzdorf

Für EDPM sind keine METAR/TAF Berichte vorhanden.
Es werden die Flugwettermeldungen vom Flugplatz Stuttgart in 45 km Entfernung angezeigt.

Bericht für EDDS

vom 17.09. um 13:20 UTC

Wind 7 kt aus 300°

Sichtweite 10 km oder mehr

aufgelockert bewölkt in 3300 ft

Temperatur 19.0°C

Taupunkt 11.0°C

Luftfeuchtigkeit 60%

Luftdruck 1019 hPa

keine wesentliche Wetteränderung innerhalb den nächsten 2 Stunden zu erwarten

EDDS 171320Z 30007KT 230V360 9999 SCT033 19/11 Q1019 NOSIG

Prognose für EDDS

vom 17.09. um 00:00 UTC

Zwischen 00:00 UTC und 00:00 UTC

Wind 8 kt aus 320°

Sichtweite 10 km oder mehr

aufgebrochene Bewölkung in 2500 ft


Am 18.09. zwischen 00:00 und 00:00 UTC übergehend zu

Wind 6 kt aus 40°

Sichtweite 10 km oder mehr

aufgebrochene Bewölkung in 2500 ft

TAF EDDS 171100Z 1712/1812 32008KT 9999 BKN025 BECMG 1805/1808 04006KT
Impressum